Time;durP1;ratioP1;P1;durP2;ratioP2;P2;SDS_P1;SDS_P2;PMS_P1;PMS_P2;Temp;Humidity;BMP_temperature;BMP_pressure;BME280_temperature;BME280_humidity;BME280_pressure;Samples;Min_cycle;Max_cycle;Signal;HPM_P1;HPM_P2
2023/09/18 00:01:50;;;;;;;1999.90;999.90;;;21.20;99.90;;;;;;5034736;28;20172;-69
2023/09/18 00:04:15;;;;;;;1999.90;999.90;;;21.20;99.90;;;;;;5034769;28;20471;-69
2023/09/18 00:06:41;;;;;;;1999.90;999.90;;;21.20;99.90;;;;;;5034818;28;20195;-69
2023/09/18 00:09:11;;;;;;;1999.90;999.90;;;21.20;99.90;;;;;;5034680;28;20165;-71
2023/09/18 00:11:37;;;;;;;1999.90;999.90;;;21.20;99.90;;;;;;5034624;28;20230;-72
2023/09/18 00:14:03;;;;;;;1999.90;999.90;;;21.20;99.90;;;;;;5034262;28;20432;-70
2023/09/18 00:16:29;;;;;;;1999.90;999.90;;;21.20;99.90;;;;;;5034643;28;20418;-70
2023/09/18 00:18:54;;;;;;;1999.90;999.90;;;21.10;99.90;;;;;;5034610;28;20260;-69
2023/09/18 00:21:20;;;;;;;1999.90;999.90;;;21.10;99.90;;;;;;5034463;28;20268;-69
2023/09/18 00:23:46;;;;;;;1999.90;999.90;;;21.10;99.90;;;;;;5034179;28;20194;-69
2023/09/18 00:26:12;;;;;;;1999.90;999.90;;;21.10;99.90;;;;;;5034346;28;20458;-69
2023/09/18 00:28:37;;;;;;;1999.90;999.90;;;21.10;99.90;;;;;;5034413;28;20208;-70
2023/09/18 00:31:03;;;;;;;1999.90;999.90;;;21.10;99.90;;;;;;5034401;28;20183;-71
2023/09/18 00:33:28;;;;;;;1999.90;999.90;;;21.10;99.90;;;;;;5033111;28;20186;-69
2023/09/18 00:35:54;;;;;;;1999.90;999.90;;;21.10;99.90;;;;;;5034187;28;20529;-69
2023/09/18 00:38:20;;;;;;;1999.90;999.90;;;21.10;99.90;;;;;;5034287;28;20171;-69
2023/09/18 00:40:46;;;;;;;1999.90;999.90;;;21.10;99.90;;;;;;5033963;28;20170;-69
2023/09/18 00:43:11;;;;;;;1999.90;999.90;;;21.00;99.90;;;;;;5034186;28;20205;-70
2023/09/18 00:45:41;;;;;;;1999.90;999.90;;;20.90;99.90;;;;;;5033895;28;20173;-71
2023/09/18 00:48:08;;;;;;;1999.90;999.90;;;20.90;99.90;;;;;;5034136;28;20217;-69
2023/09/18 00:50:33;;;;;;;1999.90;999.90;;;20.80;99.90;;;;;;5033863;28;20414;-71
2023/09/18 00:53:01;;;;;;;1999.90;999.90;;;20.70;99.90;;;;;;5033783;28;20941;-71
2023/09/18 00:55:28;;;;;;;1999.90;999.90;;;20.80;99.90;;;;;;5033547;28;20547;-69
2023/09/18 00:57:55;;;;;;;1999.90;999.90;;;20.80;99.90;;;;;;5034050;28;20828;-70
2023/09/18 01:00:22;;;;;;;1999.90;999.90;;;20.70;99.90;;;;;;5033864;28;20505;-69
2023/09/18 01:02:48;;;;;;;1999.90;999.90;;;20.70;99.90;;;;;;5033499;28;20495;-69
2023/09/18 01:05:16;;;;;;;1999.90;999.90;;;20.70;99.90;;;;;;5033645;28;20408;-69
2023/09/18 01:07:42;;;;;;;1999.90;999.90;;;20.70;99.90;;;;;;5033507;28;20447;-72
2023/09/18 01:10:15;;;;;;;1999.90;999.90;;;20.70;99.90;;;;;;5033569;28;20786;-69
2023/09/18 01:12:48;;;;;;;1999.90;999.90;;;20.70;99.90;;;;;;5033908;28;20225;-69
2023/09/18 01:15:32;;;;;;;1999.90;999.90;;;20.60;99.90;;;;;;5033468;28;20407;-69
2023/09/18 01:17:59;;;;;;;1999.90;999.90;;;20.60;99.90;;;;;;5033424;28;20414;-71
2023/09/18 01:20:24;;;;;;;1999.90;999.90;;;20.60;99.90;;;;;;5033371;28;20427;-69
2023/09/18 01:22:50;;;;;;;1999.90;999.90;;;20.50;99.90;;;;;;5033210;28;20431;-70
2023/09/18 01:25:16;;;;;;;1999.90;999.90;;;20.60;99.90;;;;;;5031928;28;20174;-69
2023/09/18 01:27:42;;;;;;;1999.90;999.90;;;20.50;99.90;;;;;;5033141;28;20273;-69
2023/09/18 01:30:07;;;;;;;1999.90;999.90;;;20.50;99.90;;;;;;5033093;28;20414;-69
2023/09/18 01:32:36;;;;;;;1999.90;999.90;;;20.60;99.90;;;;;;5033078;28;20194;-69
2023/09/18 01:35:06;;;;;;;1999.90;999.90;;;20.50;99.90;;;;;;5032951;28;20691;-69
2023/09/18 01:37:34;;;;;;;1999.90;999.90;;;20.50;99.90;;;;;;5033091;28;20502;-68
2023/09/18 01:40:06;;;;;;;1999.90;999.90;;;20.50;99.90;;;;;;5033000;28;20422;-71
2023/09/18 01:42:33;;;;;;;1999.90;999.90;;;20.40;99.90;;;;;;5032746;28;20431;-69
2023/09/18 01:44:58;;;;;;;1999.90;999.90;;;20.40;99.90;;;;;;5032699;28;20405;-71
2023/09/18 01:47:24;;;;;;;1999.90;999.90;;;20.50;99.90;;;;;;5032552;28;20449;-69
2023/09/18 01:49:50;;;;;;;1999.90;999.90;;;20.50;99.90;;;;;;5033024;28;20178;-69
2023/09/18 01:52:16;;;;;;;1999.90;999.90;;;20.50;99.90;;;;;;5032869;28;20808;-69
2023/09/18 01:54:42;;;;;;;1999.90;999.90;;;20.50;99.90;;;;;;5032629;28;20617;-69
2023/09/18 01:57:08;;;;;;;1999.90;999.90;;;20.40;99.90;;;;;;5032405;28;20434;-69
2023/09/18 01:59:34;;;;;;;1999.90;999.90;;;20.40;99.90;;;;;;5032705;28;20182;-69
2023/09/18 02:02:03;;;;;;;1999.90;999.90;;;20.50;99.90;;;;;;5032310;28;20188;-69
2023/09/18 02:04:29;;;;;;;1999.90;999.90;;;20.50;99.90;;;;;;5032527;28;20913;-71
2023/09/18 02:06:55;;;;;;;1999.90;999.90;;;20.50;99.90;;;;;;5032509;28;20547;-69
2023/09/18 02:09:21;;;;;;;1999.90;999.90;;;20.50;99.90;;;;;;5032538;28;20169;-71
2023/09/18 02:11:48;;;;;;;1999.90;999.90;;;20.50;99.90;;;;;;5032196;28;20432;-69
2023/09/18 02:14:14;;;;;;;1999.90;999.90;;;20.50;99.90;;;;;;5032160;28;20163;-69
2023/09/18 02:16:43;;;;;;;1999.90;999.90;;;20.50;99.90;;;;;;5032147;28;20417;-69
2023/09/18 02:19:09;;;;;;;1999.90;999.90;;;20.60;99.90;;;;;;5032544;28;20843;-69
2023/09/18 02:21:35;;;;;;;1999.90;999.90;;;20.60;99.90;;;;;;5032226;28;20431;-69
2023/09/18 02:24:01;;;;;;;1999.90;999.90;;;20.60;99.90;;;;;;5032014;28;20456;-69
2023/09/18 02:26:27;;;;;;;1999.90;999.90;;;20.70;99.90;;;;;;5032059;28;20449;-69
2023/09/18 02:28:54;;;;;;;1999.90;999.90;;;20.70;99.90;;;;;;5032071;28;20475;-69
2023/09/18 02:31:22;;;;;;;1999.90;999.90;;;20.60;99.90;;;;;;5032196;28;20185;-71
2023/09/18 02:33:48;;;;;;;1999.90;999.90;;;20.70;99.90;;;;;;5031743;28;20931;-69
2023/09/18 02:36:14;;;;;;;1999.90;999.90;;;20.50;99.90;;;;;;5031979;28;20544;-68
2023/09/18 02:38:40;;;;;;;1999.90;999.90;;;20.40;99.90;;;;;;5032002;28;20175;-69
2023/09/18 02:41:05;;;;;;;1999.90;999.90;;;20.40;99.90;;;;;;5031996;28;20411;-70
2023/09/18 02:43:31;;;;;;;1999.90;999.90;;;20.50;99.90;;;;;;5031418;28;20276;-69
2023/09/18 02:45:57;;;;;;;1999.90;999.90;;;20.60;99.90;;;;;;5031819;28;20359;-69
2023/09/18 02:48:22;;;;;;;1999.90;999.90;;;20.70;99.90;;;;;;5031853;28;20175;-69
2023/09/18 02:50:48;;;;;;;1999.90;999.90;;;20.80;99.90;;;;;;5031679;28;20713;-69
2023/09/18 02:53:22;;;;;;;1999.90;999.90;;;20.80;99.90;;;;;;5031703;28;20199;-70
2023/09/18 02:55:51;;;;;;;1999.90;999.90;;;20.80;99.90;;;;;;5031190;28;20290;-69
2023/09/18 02:58:19;;;;;;;1999.90;999.90;;;20.80;99.90;;;;;;5031559;28;20413;-69
2023/09/18 03:00:45;;;;;;;1999.90;999.90;;;20.80;99.90;;;;;;5031688;28;20418;-72
2023/09/18 03:03:12;;;;;;;1999.90;999.90;;;20.90;99.90;;;;;;5031456;28;20431;-72
2023/09/18 03:05:39;;;;;;;1999.90;999.90;;;20.90;99.90;;;;;;5031495;28;20982;-72
2023/09/18 03:08:04;;;;;;;1999.90;999.90;;;21.00;99.90;;;;;;5014525;28;20491;-72
2023/09/18 03:10:39;;;;;;;1999.90;999.90;;;21.00;99.90;;;;;;5011700;28;20414;-72
2023/09/18 03:13:06;;;;;;;1999.90;999.90;;;21.00;99.90;;;;;;5011772;28;20192;-72
2023/09/18 03:15:31;;;;;;;1999.90;999.90;;;21.00;99.90;;;;;;5011800;28;20413;-72
2023/09/18 03:17:58;;;;;;;1999.90;999.90;;;21.00;99.90;;;;;;5011682;28;20413;-71
2023/09/18 03:20:25;;;;;;;1999.90;999.90;;;21.10;99.90;;;;;;5011730;28;20199;-70
2023/09/18 03:22:51;;;;;;;1999.90;999.90;;;21.20;99.90;;;;;;5011500;28;20434;-72
2023/09/18 03:25:17;;;;;;;1999.90;999.90;;;21.20;99.90;;;;;;5011383;28;20840;-72
2023/09/18 03:27:43;;;;;;;1999.90;999.90;;;21.20;99.90;;;;;;5011704;28;20456;-72
2023/09/18 03:30:09;;;;;;;1999.90;999.90;;;21.10;99.90;;;;;;5011648;28;20223;-70
2023/09/18 03:32:36;;;;;;;1999.90;999.90;;;21.00;99.90;;;;;;5011540;28;20221;-72
2023/09/18 03:35:01;;;;;;;1999.90;999.90;;;21.00;99.90;;;;;;5011418;28;20436;-72
2023/09/18 03:37:27;;;;;;;1999.90;999.90;;;20.90;99.90;;;;;;5011516;28;20178;-72
2023/09/18 03:39:52;;;;;;;1999.90;999.90;;;20.90;99.90;;;;;;5011487;28;20182;-70
2023/09/18 03:42:18;;;;;;;1999.90;999.90;;;20.90;99.90;;;;;;5011288;28;20207;-72
2023/09/18 03:44:43;;;;;;;1999.90;999.90;;;20.90;99.90;;;;;;5011339;28;20634;-72
2023/09/18 03:47:09;;;;;;;1999.90;999.90;;;20.90;99.90;;;;;;5011471;28;20284;-72
2023/09/18 03:49:34;;;;;;;1999.90;999.90;;;20.90;99.90;;;;;;5011467;28;20170;-70
2023/09/18 03:52:00;;;;;;;1999.90;999.90;;;20.90;99.90;;;;;;5011217;28;20228;-72
2023/09/18 03:54:26;;;;;;;1999.90;999.90;;;20.90;99.90;;;;;;5011190;28;20198;-72
2023/09/18 03:56:51;;;;;;;1999.90;999.90;;;20.90;99.90;;;;;;5010933;28;20199;-72
2023/09/18 03:59:17;;;;;;;1999.90;999.90;;;20.90;99.90;;;;;;5011271;28;20886;-70
2023/09/18 04:01:42;;;;;;;1999.90;999.90;;;21.00;99.90;;;;;;5011396;28;20179;-72
2023/09/18 04:04:08;;;;;;;1999.90;999.90;;;21.00;99.90;;;;;;5010897;28;20193;-72
2023/09/18 04:06:42;;;;;;;1999.90;999.90;;;21.00;99.90;;;;;;5011290;28;20203;-72
2023/09/18 04:09:08;;;;;;;1999.90;999.90;;;20.90;99.90;;;;;;5013833;28;20260;-72
2023/09/18 04:11:34;;;;;;;1999.90;999.90;;;20.90;99.90;;;;;;5014867;28;20865;-72
2023/09/18 04:14:01;;;;;;;1999.90;999.90;;;20.90;99.90;;;;;;5014729;28;20437;-71
2023/09/18 04:16:27;;;;;;;1999.90;999.90;;;20.80;99.90;;;;;;5015162;28;20623;-72
2023/09/18 04:18:53;;;;;;;1999.90;999.90;;;20.80;99.90;;;;;;5014870;28;20416;-72
2023/09/18 04:21:21;;;;;;;1999.90;999.90;;;20.80;99.90;;;;;;5014855;28;20811;-70
2023/09/18 04:23:47;;;;;;;1999.90;999.90;;;20.80;99.90;;;;;;5014356;28;20488;-72
2023/09/18 04:26:15;;;;;;;1999.90;999.90;;;20.70;99.90;;;;;;5014750;28;20417;-72
2023/09/18 04:28:41;;;;;;;1999.90;999.90;;;20.70;99.90;;;;;;5014920;28;20232;-72
2023/09/18 04:31:07;;;;;;;1999.90;999.90;;;20.60;99.90;;;;;;5014653;28;20505;-71
2023/09/18 04:33:33;;;;;;;1999.90;999.90;;;20.60;99.90;;;;;;5014225;28;20408;-72
2023/09/18 04:35:58;;;;;;;1999.90;999.90;;;20.60;99.90;;;;;;5014528;28;20538;-72
2023/09/18 04:38:24;;;;;;;1999.90;999.90;;;20.60;99.90;;;;;;5014267;28;20574;-72
2023/09/18 04:40:57;;;;;;;1999.90;999.90;;;20.60;99.90;;;;;;5014617;28;20531;-71
2023/09/18 04:43:23;;;;;;;1999.90;999.90;;;20.60;99.90;;;;;;5019452;28;20210;-72
2023/09/18 04:45:49;;;;;;;1999.90;999.90;;;20.60;99.90;;;;;;5024797;28;20419;-72
2023/09/18 04:48:14;;;;;;;1999.90;999.90;;;20.60;99.90;;;;;;5034071;28;20483;-72
2023/09/18 04:50:40;;;;;;;1999.90;999.90;;;20.60;99.90;;;;;;5033921;28;20235;-71
2023/09/18 04:53:05;;;;;;;1999.90;999.90;;;20.70;99.90;;;;;;5033906;28;20201;-72
2023/09/18 04:55:31;;;;;;;1999.90;999.90;;;20.70;99.90;;;;;;5033615;28;20203;-72
2023/09/18 04:57:58;;;;;;;1999.90;999.90;;;20.70;99.90;;;;;;5033820;28;20188;-72
2023/09/18 05:00:26;;;;;;;1999.90;999.90;;;20.70;99.90;;;;;;5033768;28;20656;-70
2023/09/18 05:02:52;;;;;;;1999.90;999.90;;;20.70;99.90;;;;;;5033707;28;20430;-72
2023/09/18 05:05:18;;;;;;;1999.90;999.90;;;20.70;99.90;;;;;;5033546;28;20470;-71
2023/09/18 05:07:43;;;;;;;1999.90;999.90;;;20.70;99.90;;;;;;5014566;28;20615;-72
2023/09/18 05:10:10;;;;;;;1999.90;999.90;;;20.70;99.90;;;;;;5022446;28;20593;-71
2023/09/18 05:12:35;;;;;;;1999.90;999.90;;;20.70;99.90;;;;;;5029538;28;20469;-71
2023/09/18 05:15:01;;;;;;;1999.90;999.90;;;20.70;99.90;;;;;;5033407;28;20465;-71
2023/09/18 05:17:46;;;;;;;1999.90;999.90;;;20.80;99.90;;;;;;5033492;28;20404;-72
2023/09/18 05:20:14;;;;;;;1999.90;999.90;;;20.70;99.90;;;;;;5033383;28;20240;-72
2023/09/18 05:22:40;;;;;;;1999.90;999.90;;;20.70;99.90;;;;;;5033371;28;20983;-71
2023/09/18 05:25:06;;;;;;;1999.90;999.90;;;20.70;99.90;;;;;;5033103;28;20475;-72
2023/09/18 05:27:32;;;;;;;1999.90;999.90;;;20.70;99.90;;;;;;5033446;28;20467;-72
2023/09/18 05:29:58;;;;;;;1999.90;999.90;;;20.80;99.90;;;;;;5033833;28;20403;-72
2023/09/18 05:32:23;;;;;;;1999.90;999.90;;;20.80;99.90;;;;;;5033022;28;20185;-72
2023/09/18 05:34:49;;;;;;;1999.90;999.90;;;20.80;99.90;;;;;;5033020;28;20183;-71
2023/09/18 05:37:15;;;;;;;1999.90;999.90;;;20.70;99.90;;;;;;5024596;28;20182;-70
2023/09/18 05:39:41;;;;;;;1999.90;999.90;;;20.70;99.90;;;;;;5021486;28;20194;-70
2023/09/18 05:42:06;;;;;;;1999.90;999.90;;;20.70;99.90;;;;;;5021344;28;21011;-72
2023/09/18 05:44:33;;;;;;;1999.90;999.90;;;20.70;99.90;;;;;;5024387;28;20248;-72
2023/09/18 05:46:59;;;;;;;1999.90;999.90;;;20.80;99.90;;;;;;5032835;28;20375;-72
2023/09/18 05:49:24;;;;;;;1999.90;999.90;;;20.80;99.90;;;;;;5033180;28;20512;-72
2023/09/18 05:51:50;;;;;;;1999.90;999.90;;;20.80;99.90;;;;;;5032683;28;20415;-71
2023/09/18 05:54:15;;;;;;;1999.90;999.90;;;20.80;99.90;;;;;;5032546;28;20637;-72
2023/09/18 05:56:41;;;;;;;1999.90;999.90;;;20.80;99.90;;;;;;5031160;28;20316;-70
2023/09/18 05:59:07;;;;;;;1999.90;999.90;;;20.90;99.90;;;;;;5024666;28;20179;-70
2023/09/18 06:01:32;;;;;;;1999.90;999.90;;;20.90;99.90;;;;;;5032547;28;20474;-71
2023/09/18 06:03:58;;;;;;;1999.90;999.90;;;20.90;99.90;;;;;;5032393;28;20282;-72
2023/09/18 06:06:25;;;;;;;1999.90;999.90;;;21.00;99.90;;;;;;5031132;28;20197;-71
2023/09/18 06:08:53;;;;;;;1999.90;999.90;;;20.90;99.90;;;;;;5020215;28;20264;-72
2023/09/18 06:11:19;;;;;;;1999.90;999.90;;;20.90;99.90;;;;;;5032258;28;20970;-72
2023/09/18 06:13:44;;;;;;;1999.90;999.90;;;20.90;99.90;;;;;;5020781;28;20535;-72
2023/09/18 06:16:10;;;;;;;1999.90;999.90;;;21.00;99.90;;;;;;5024138;28;20192;-70
2023/09/18 06:18:38;;;;;;;1999.90;999.90;;;21.00;99.90;;;;;;5032246;28;20172;-71
2023/09/18 06:21:04;;;;;;;1999.90;999.90;;;21.00;99.90;;;;;;5032386;28;20231;-71
2023/09/18 06:23:30;;;;;;;1999.90;999.90;;;21.00;99.90;;;;;;5029955;28;20420;-69
2023/09/18 06:25:56;;;;;;;1999.90;999.90;;;21.10;99.90;;;;;;5023992;28;20414;-69
2023/09/18 06:28:22;;;;;;;1999.90;999.90;;;21.20;99.90;;;;;;5032253;28;20226;-69
2023/09/18 06:30:48;;;;;;;1999.90;999.90;;;21.20;99.90;;;;;;5031435;28;21053;-72
2023/09/18 06:33:14;;;;;;;1999.90;999.90;;;21.20;99.90;;;;;;5032037;28;20511;-72
2023/09/18 06:35:40;;;;;;;1999.90;999.90;;;21.30;99.90;;;;;;5031858;28;20654;-71
2023/09/18 06:38:06;;;;;;;1999.90;999.90;;;21.30;99.90;;;;;;5032011;28;20187;-70
2023/09/18 06:40:32;;;;;;;1999.90;999.90;;;21.30;99.90;;;;;;5031899;28;20958;-70
2023/09/18 06:43:01;;;;;;;1999.90;999.90;;;21.40;99.90;;;;;;5032307;28;20474;-70
2023/09/18 06:45:28;;;;;;;1999.90;999.90;;;21.40;99.90;;;;;;5031594;28;20174;-71
2023/09/18 06:47:53;;;;;;;1999.90;999.90;;;21.40;99.90;;;;;;5031786;28;20459;-72
2023/09/18 06:50:19;;;;;;;1999.90;999.90;;;21.50;99.90;;;;;;5031785;28;20410;-70
2023/09/18 06:52:46;;;;;;;1999.90;999.90;;;21.50;99.90;;;;;;5031616;28;20253;-70
2023/09/18 06:55:12;;;;;;;1999.90;999.90;;;21.50;99.90;;;;;;5031677;28;20168;-72
2023/09/18 06:57:38;;;;;;;1999.90;999.90;;;21.50;99.90;;;;;;5025528;28;20522;-70
2023/09/18 07:00:05;;;;;;;1999.90;999.90;;;21.60;99.90;;;;;;5022790;28;20186;-71
2023/09/18 07:02:30;;;;;;;1999.90;999.90;;;21.50;99.90;;;;;;5031478;28;20991;-72
2023/09/18 07:04:56;;;;;;;1999.90;999.90;;;21.60;99.90;;;;;;5031275;28;20418;-72
2023/09/18 07:07:25;;;;;;;1999.90;999.90;;;21.60;99.90;;;;;;5031615;28;20211;-72
2023/09/18 07:09:51;;;;;;;1999.90;999.90;;;21.60;99.90;;;;;;5031657;28;20639;-70
2023/09/18 07:12:19;;;;;;;1999.90;999.90;;;21.60;99.90;;;;;;5031274;28;20801;-72
2023/09/18 07:14:45;;;;;;;1999.90;999.90;;;21.60;99.90;;;;;;5031371;28;20788;-71
2023/09/18 07:17:11;;;;;;;1999.90;999.90;;;21.60;99.90;;;;;;5031516;28;20444;-71
2023/09/18 07:19:36;;;;;;;1999.90;999.90;;;21.50;99.90;;;;;;5031378;28;20456;-70
2023/09/18 07:22:02;;;;;;;1999.90;999.90;;;21.50;99.90;;;;;;5031391;28;20254;-72
2023/09/18 07:24:28;;;;;;;1999.90;999.90;;;21.50;99.90;;;;;;5031117;28;20239;-71
2023/09/18 07:26:54;;;;;;;1999.90;999.90;;;21.40;99.90;;;;;;5031270;28;20584;-71
2023/09/18 07:29:20;;;;;;;1999.90;999.90;;;21.50;99.90;;;;;;5031625;28;20590;-70
2023/09/18 07:31:47;;;;;;;1999.90;999.90;;;21.50;99.90;;;;;;5031305;28;20410;-72
2023/09/18 07:34:16;;;;;;;1999.90;999.90;;;21.50;99.90;;;;;;5030991;28;20416;-72
2023/09/18 07:36:42;;;;;;;1999.90;999.90;;;21.50;99.90;;;;;;5031303;28;20419;-71
2023/09/18 07:39:07;;;;;;;1999.90;999.90;;;21.50;99.90;;;;;;5031197;28;20408;-72
2023/09/18 07:41:33;;;;;;;1999.90;999.90;;;21.60;99.90;;;;;;5031364;28;20182;-70
2023/09/18 07:43:59;;;;;;;1999.90;999.90;;;21.60;99.90;;;;;;5035188;28;20291;-71
2023/09/18 07:46:25;;;;;;;1999.90;999.90;;;21.60;99.90;;;;;;5035017;28;20292;-72
2023/09/18 07:48:50;;;;;;;1999.90;999.90;;;21.60;99.90;;;;;;5035245;28;20253;-71
2023/09/18 07:51:16;;;;;;;1999.90;999.90;;;21.70;99.90;;;;;;5035080;28;20495;-72
2023/09/18 07:53:42;;;;;;;1999.90;999.90;;;21.60;99.90;;;;;;5034716;28;20202;-71
2023/09/18 07:56:08;;;;;;;1999.90;999.90;;;21.70;99.90;;;;;;5035232;28;20182;-71
2023/09/18 07:58:38;;;;;;;1999.90;999.90;;;21.70;99.90;;;;;;5035091;28;20896;-71
2023/09/18 08:01:09;;;;;;;1999.90;999.90;;;21.80;99.90;;;;;;5034953;28;20203;-72
2023/09/18 08:03:35;;;;;;;1999.90;999.90;;;21.80;99.90;;;;;;5034545;28;20836;-72
2023/09/18 08:06:00;;;;;;;1999.90;999.90;;;22.00;99.90;;;;;;5034800;28;20445;-72
2023/09/18 08:08:26;;;;;;;1999.90;999.90;;;22.10;99.90;;;;;;5034678;28;20516;-72
2023/09/18 08:10:53;;;;;;;1999.90;999.90;;;22.20;99.90;;;;;;5034684;28;20410;-72
2023/09/18 08:13:19;;;;;;;1999.90;999.90;;;22.30;99.90;;;;;;5034594;28;20199;-72
2023/09/18 08:15:45;;;;;;;1999.90;999.90;;;22.30;99.90;;;;;;5034585;28;20407;-71
2023/09/18 08:18:13;;;;;;;1999.90;999.90;;;22.40;99.90;;;;;;5034635;28;20920;-72
2023/09/18 08:20:45;;;;;;;1999.90;999.90;;;22.50;99.90;;;;;;5034593;28;20414;-72
2023/09/18 08:23:12;;;;;;;1999.90;999.90;;;22.40;99.90;;;;;;5034470;28;20419;-71
2023/09/18 08:25:37;;;;;;;1999.90;999.90;;;22.40;99.90;;;;;;5034436;28;20483;-72
2023/09/18 08:28:04;;;;;;;1999.90;999.90;;;22.40;99.90;;;;;;5015387;28;20868;-71
2023/09/18 08:30:30;;;;;;;1999.90;999.90;;;22.40;99.90;;;;;;5009399;28;20267;-68
2023/09/18 08:32:56;;;;;;;1999.90;999.90;;;22.50;99.90;;;;;;5006934;28;20447;-72
2023/09/18 08:35:22;;;;;;;1999.90;999.90;;;22.50;99.90;;;;;;5020846;28;20429;-71
2023/09/18 08:37:48;;;;;;;1999.90;999.90;;;22.50;99.90;;;;;;5029820;28;20203;-71
2023/09/18 08:40:14;;;;;;;1999.90;999.90;;;22.50;99.90;;;;;;5023259;28;20419;-70
2023/09/18 08:42:46;;;;;;;1999.90;999.90;;;22.50;99.90;;;;;;5025678;28;20500;-73
2023/09/18 08:45:19;;;;;;;1999.90;999.90;;;22.50;99.90;;;;;;5029832;28;20477;-73
2023/09/18 08:47:46;;;;;;;1999.90;999.90;;;22.50;99.90;;;;;;5018541;28;20501;-68
2023/09/18 08:50:12;;;;;;;1999.90;999.90;;;22.50;99.90;;;;;;5021041;28;20406;-72
2023/09/18 08:52:39;;;;;;;1999.90;999.90;;;22.70;99.90;;;;;;5028135;28;20582;-74
2023/09/18 08:55:06;;;;;;;1999.90;999.90;;;22.70;99.90;;;;;;5029152;28;20812;-75
2023/09/18 08:57:33;;;;;;;1999.90;999.90;;;22.70;99.90;;;;;;5029820;28;20442;-70
2023/09/18 09:00:01;;;;;;;1999.90;999.90;;;22.80;99.90;;;;;;5031048;28;20419;-72
2023/09/18 09:02:27;;;;;;;1999.90;999.90;;;22.90;99.90;;;;;;5028761;28;20430;-74
2023/09/18 09:04:53;;;;;;;1999.90;999.90;;;22.90;99.90;;;;;;5015513;28;20470;-73
2023/09/18 09:07:18;;;;;;;1999.90;999.90;;;23.00;99.90;;;;;;5008562;28;20193;-72
2023/09/18 09:09:44;;;;;;;1999.90;999.90;;;23.00;99.90;;;;;;5006972;28;20715;-73
2023/09/18 09:12:10;;;;;;;1999.90;999.90;;;23.30;99.90;;;;;;5009877;28;20189;-73
2023/09/18 09:14:35;;;;;;;1999.90;999.90;;;23.10;99.90;;;;;;5009800;28;20173;-73
2023/09/18 09:17:02;;;;;;;1999.90;999.90;;;23.10;99.90;;;;;;5009251;28;20181;-70
2023/09/18 09:19:38;;;;;;;1999.90;999.90;;;23.10;99.90;;;;;;5009531;28;20191;-72
2023/09/18 09:22:04;;;;;;;1999.90;999.90;;;23.10;99.90;;;;;;5009316;28;20428;-73
2023/09/18 09:24:38;;;;;;;1999.90;999.90;;;23.20;99.90;;;;;;5007692;28;20460;-73
2023/09/18 09:27:04;;;;;;;1999.90;999.90;;;23.20;99.90;;;;;;5008510;28;20470;-73
2023/09/18 09:29:29;;;;;;;1999.90;999.90;;;23.30;99.90;;;;;;5009851;28;20402;-72
2023/09/18 09:31:58;;;;;;;1999.90;999.90;;;23.20;99.90;;;;;;5008768;28;20546;-74
2023/09/18 09:34:26;;;;;;;1999.90;999.90;;;23.20;99.90;;;;;;5008508;28;20551;-72
2023/09/18 09:36:56;;;;;;;1999.90;999.90;;;23.20;99.90;;;;;;5008807;28;20420;-72
2023/09/18 09:39:24;;;;;;;1999.90;999.90;;;23.30;99.90;;;;;;5010032;28;20451;-73
2023/09/18 09:41:51;;;;;;;1999.90;999.90;;;23.30;99.90;;;;;;5006760;28;20402;-71
2023/09/18 09:44:18;;;;;;;1999.90;999.90;;;23.30;99.90;;;;;;5012512;28;20469;-69
2023/09/18 09:46:48;;;;;;;1999.90;999.90;;;23.40;99.90;;;;;;5024618;28;20461;-70
2023/09/18 09:49:16;;;;;;;1999.90;999.90;;;23.30;99.90;;;;;;5025864;28;20810;-71
2023/09/18 09:51:42;;;;;;;1999.90;999.90;;;23.20;99.90;;;;;;5013767;28;20458;-71
2023/09/18 09:54:08;;;;;;;1999.90;999.90;;;23.20;99.90;;;;;;5023236;28;20506;-69
2023/09/18 09:56:50;;;;;;;1999.90;999.90;;;23.10;99.90;;;;;;5014674;28;20509;-69
2023/09/18 09:59:18;;;;;;;1999.90;999.90;;;23.10;99.90;;;;;;5006754;28;20191;-71
2023/09/18 10:01:48;;;;;;;1999.90;999.90;;;23.00;99.90;;;;;;5012594;28;20943;-71
2023/09/18 10:04:17;;;;;;;1999.90;999.90;;;23.10;99.90;;;;;;5013808;28;20934;-72
2023/09/18 10:06:53;;;;;;;1999.90;999.90;;;23.10;99.90;;;;;;5009081;28;21004;-68
2023/09/18 10:09:20;;;;;;;1999.90;999.90;;;23.10;99.90;;;;;;5006060;28;20426;-71
2023/09/18 10:11:51;;;;;;;1999.90;999.90;;;23.30;99.90;;;;;;5012776;28;20420;-70
2023/09/18 10:14:29;;;;;;;1999.90;999.90;;;23.40;99.90;;;;;;4996213;28;20961;-71
2023/09/18 10:16:58;;;;;;;1999.90;999.90;;;23.60;99.90;;;;;;5017693;28;20410;-71
2023/09/18 10:19:40;;;;;;;1999.90;999.90;;;23.70;99.90;;;;;;5013072;28;20435;-71
2023/09/18 10:22:23;;;;;;;1999.90;999.90;;;23.90;99.90;;;;;;5016052;28;20425;-72
2023/09/18 10:24:54;;;;;;;1999.90;999.90;;;23.90;99.90;;;;;;5006132;28;20412;-72
2023/09/18 10:27:22;;;;;;;1999.90;999.90;;;24.00;99.90;;;;;;5003475;28;20670;-72
2023/09/18 10:29:51;;;;;;;1999.90;999.90;;;24.10;99.90;;;;;;5007770;28;20413;-70
2023/09/18 10:32:20;;;;;;;1999.90;999.90;;;24.10;99.90;;;;;;5005524;28;20447;-71
2023/09/18 10:34:47;;;;;;;1999.90;999.90;;;24.10;99.90;;;;;;5019126;28;20422;-71
2023/09/18 10:37:15;;;;;;;1999.90;999.90;;;24.20;99.90;;;;;;5026764;28;20775;-71
2023/09/18 10:39:43;;;;;;;1999.90;999.90;;;24.20;99.90;;;;;;5027196;28;20423;-70
2023/09/18 10:42:10;;;;;;;1999.90;999.90;;;24.40;99.90;;;;;;5027585;28;20471;-69
2023/09/18 10:44:36;;;;;;;1999.90;999.90;;;24.50;99.90;;;;;;5028210;28;20817;-72
2023/09/18 10:47:05;;;;;;;1999.90;999.90;;;24.50;99.90;;;;;;5027442;28;20454;-72
2023/09/18 10:49:31;;;;;;;1999.90;999.90;;;24.60;99.90;;;;;;5027673;28;20415;-71
2023/09/18 10:51:58;;;;;;;1999.90;999.90;;;24.70;99.90;;;;;;5028230;28;20849;-71
2023/09/18 10:54:25;;;;;;;1999.90;999.90;;;24.90;99.90;;;;;;5027624;28;20426;-72
2023/09/18 10:56:52;;;;;;;1999.90;999.90;;;25.00;99.90;;;;;;5027233;28;20877;-72
2023/09/18 10:59:18;;;;;;;1999.90;999.90;;;25.20;99.90;;;;;;5028082;28;20808;-71
2023/09/18 11:01:44;;;;;;;1999.90;999.90;;;25.40;99.90;;;;;;5027367;28;20759;-72
2023/09/18 11:04:10;;;;;;;1999.90;999.90;;;25.50;99.90;;;;;;5027097;28;20448;-72
2023/09/18 11:06:57;;;;;;;1999.90;999.90;;;25.80;99.90;;;;;;5027962;28;20463;-71
2023/09/18 11:09:28;;;;;;;1999.90;999.90;;;26.00;99.90;;;;;;5020001;28;20423;-72
2023/09/18 11:11:57;;;;;;;1999.90;999.90;;;26.00;99.90;;;;;;5027406;28;20779;-72
2023/09/18 11:14:23;;;;;;;1999.90;999.90;;;25.90;99.90;;;;;;5027733;28;20410;-71
2023/09/18 11:16:49;;;;;;;1999.90;999.90;;;25.70;99.90;;;;;;5026721;28;20423;-72
2023/09/18 11:19:19;;;;;;;1999.90;999.90;;;25.60;99.90;;;;;;5027433;28;20480;-68
2023/09/18 11:21:45;;;;;;;1999.90;999.90;;;25.30;99.60;;;;;;5027694;28;20430;-71
2023/09/18 11:24:17;;;;;;;1999.90;999.90;;;25.40;99.90;;;;;;5027272;28;20434;-72
2023/09/18 11:26:44;;;;;;;1999.90;999.90;;;25.40;99.90;;;;;;5027079;28;20489;-72
2023/09/18 11:29:12;;;;;;;1999.90;999.90;;;25.40;99.60;;;;;;5027102;28;20389;-71
2023/09/18 11:31:50;;;;;;;1999.90;999.90;;;25.50;99.60;;;;;;5028033;28;20411;-70
2023/09/18 11:34:23;;;;;;;1999.90;999.90;;;25.70;99.90;;;;;;5027433;28;20431;-69
2023/09/18 11:36:50;;;;;;;1999.90;999.90;;;25.90;98.50;;;;;;5027416;28;20418;-71
2023/09/18 11:39:39;;;;;;;1999.90;999.90;;;26.30;97.20;;;;;;5027004;28;20762;-71
2023/09/18 11:42:17;;;;;;;1999.90;999.90;;;26.90;93.60;;;;;;5027393;28;20385;-70
2023/09/18 11:44:46;;;;;;;1999.90;999.90;;;27.50;90.80;;;;;;5027351;28;20393;-71
2023/09/18 11:47:19;;;;;;;1999.90;999.90;;;28.10;86.30;;;;;;5027601;28;20845;-70
2023/09/18 11:49:57;;;;;;;1999.90;999.90;;;28.60;70.70;;;;;;5027416;28;20775;-73
2023/09/18 11:52:29;;;;;;;1999.90;999.90;;;28.40;61.70;;;;;;5027370;28;20438;-71
2023/09/18 11:54:57;;;;;;;1999.90;999.90;;;28.50;57.60;;;;;;5026766;28;20847;-71
2023/09/18 11:57:23;;;;;;;1999.90;999.90;;;28.50;56.90;;;;;;5026535;28;20466;-72
2023/09/18 11:59:50;;;;;;;1999.90;999.90;;;28.90;54.60;;;;;;5027279;28;20412;-69